createdAt,value
2023-01-12T00:02:22.139Z,24.05
2023-01-12T00:04:50.927Z,33.47
2023-01-12T00:07:20.344Z,19.75
2023-01-12T00:09:48.901Z,23.85
2023-01-12T00:12:17.355Z,20.45
2023-01-12T00:14:45.773Z,16.10
2023-01-12T00:17:17.151Z,17.42
2023-01-12T00:19:46.998Z,20.33
2023-01-12T00:22:18.323Z,16.63
2023-01-12T00:24:49.645Z,20.15
2023-01-12T00:27:20.059Z,17.13
2023-01-12T00:29:48.462Z,21.80
2023-01-12T00:32:18.138Z,18.80
2023-01-12T00:34:48.452Z,22.02
2023-01-12T00:37:16.953Z,19.13
2023-01-12T00:40:00.907Z,22.88
2023-01-12T00:42:47.895Z,31.27
2023-01-12T00:45:22.443Z,23.10
2023-01-12T00:47:50.976Z,14.90
2023-01-12T00:50:20.859Z,20.02
2023-01-12T00:52:49.279Z,19.13
2023-01-12T00:55:22.247Z,24.67
2023-01-12T00:57:50.846Z,22.83
2023-01-12T01:00:19.765Z,19.25
2023-01-12T01:02:48.153Z,20.27
2023-01-12T01:05:17.649Z,13.82
2023-01-12T01:07:47.492Z,16.73
2023-01-12T01:10:17.084Z,19.17
2023-01-12T01:12:45.465Z,20.27
2023-01-12T01:15:13.873Z,8.98
2023-01-12T01:17:42.192Z,21.52
2023-01-12T01:20:12.424Z,14.85
2023-01-12T01:22:41.004Z,14.02
2023-01-12T01:25:11.280Z,15.43
2023-01-12T01:27:39.762Z,14.13
2023-01-12T01:30:09.243Z,15.00
2023-01-12T01:32:37.579Z,22.52
2023-01-12T01:35:06.743Z,13.77
2023-01-12T01:37:35.081Z,23.33
2023-01-12T01:40:03.403Z,15.27
2023-01-12T01:42:33.102Z,16.88
2023-01-12T01:45:04.322Z,14.40
2023-01-12T01:47:37.383Z,19.55
2023-01-12T01:50:13.145Z,20.17
2023-01-12T01:52:46.254Z,26.67
2023-01-12T01:55:18.808Z,17.25
2023-01-12T01:57:52.945Z,19.73
2023-01-12T02:00:22.275Z,22.23
2023-01-12T02:02:52.932Z,18.45
2023-01-12T02:05:28.418Z,17.02
2023-01-12T02:08:02.832Z,23.58
2023-01-12T02:10:31.886Z,20.38
2023-01-12T02:13:19.098Z,20.75
2023-01-12T02:16:14.354Z,22.75
2023-01-12T02:18:50.627Z,23.00
2023-01-12T02:21:43.204Z,16.15
2023-01-12T02:24:31.743Z,20.08
2023-01-12T02:27:19.358Z,27.70
2023-01-12T02:30:18.144Z,25.23
2023-01-12T02:32:56.342Z,19.08
2023-01-12T02:35:29.917Z,17.90
2023-01-12T02:38:07.625Z,18.42
2023-01-12T02:40:45.106Z,14.50
2023-01-12T02:43:17.758Z,25.15
2023-01-12T02:45:52.285Z,20.27
2023-01-12T02:48:28.381Z,31.77
2023-01-12T02:51:05.339Z,24.48
2023-01-12T02:53:43.052Z,22.85
2023-01-12T02:56:14.656Z,22.60
2023-01-12T02:58:48.068Z,29.15
2023-01-12T03:01:19.050Z,22.00
2023-01-12T03:03:50.181Z,37.90
2023-01-12T03:06:19.136Z,17.92
2023-01-12T03:08:50.844Z,17.42
2023-01-12T03:11:21.695Z,36.88
2023-01-12T03:13:54.166Z,17.33
2023-01-12T03:16:25.826Z,28.63
2023-01-12T03:19:00.407Z,25.45
2023-01-12T03:21:33.712Z,25.38
2023-01-12T03:24:05.637Z,23.63
2023-01-12T03:26:37.710Z,38.17
2023-01-12T03:29:10.411Z,35.97
2023-01-12T03:31:39.228Z,27.75
2023-01-12T03:34:10.074Z,32.72
2023-01-12T03:36:46.848Z,25.75
2023-01-12T03:39:24.666Z,31.50
2023-01-12T03:42:00.317Z,26.55
2023-01-12T03:44:36.457Z,22.35
2023-01-12T03:47:09.992Z,26.70
2023-01-12T03:49:44.992Z,33.42
2023-01-12T03:52:14.561Z,24.45
2023-01-12T03:54:45.077Z,27.40
2023-01-12T03:57:15.195Z,16.60
2023-01-12T03:59:44.415Z,24.70
2023-01-12T04:02:13.512Z,28.95
2023-01-12T04:04:43.349Z,20.95
2023-01-12T04:07:11.682Z,21.42
2023-01-12T04:09:39.984Z,23.02
2023-01-12T04:12:10.108Z,21.73
2023-01-12T04:14:39.276Z,28.05
2023-01-12T04:17:08.608Z,22.35
2023-01-12T04:19:37.219Z,16.70
2023-01-12T04:22:25.146Z,18.50
2023-01-12T04:24:53.684Z,16.08
2023-01-12T04:27:21.975Z,18.63
2023-01-12T04:29:50.397Z,17.77
2023-01-12T04:32:18.789Z,19.02
2023-01-12T04:34:47.275Z,15.65
2023-01-12T04:37:17.108Z,17.50
2023-01-12T04:39:45.643Z,23.50
2023-01-12T04:42:27.976Z,18.23
2023-01-12T04:44:56.498Z,16.98
2023-01-12T04:47:24.897Z,15.93
2023-01-12T04:49:53.210Z,17.42
2023-01-12T04:52:22.889Z,19.25
2023-01-12T04:54:51.272Z,14.13
2023-01-12T04:57:19.806Z,24.55
2023-01-12T04:59:48.264Z,15.90
2023-01-12T05:02:16.677Z,9.80
2023-01-12T05:04:47.133Z,18.42
2023-01-12T05:07:15.731Z,16.23
2023-01-12T05:10:03.139Z,14.48
2023-01-12T05:12:31.764Z,14.27
2023-01-12T05:15:00.230Z,11.10
2023-01-12T05:17:28.562Z,14.27
2023-01-12T05:19:57.453Z,12.98
2023-01-12T05:22:26.905Z,11.50
2023-01-12T05:24:56.733Z,11.82
2023-01-12T05:27:25.293Z,13.98
2023-01-12T05:29:53.707Z,19.65
2023-01-12T05:32:22.073Z,10.57
2023-01-12T05:34:50.482Z,6.93
2023-01-12T05:37:19.003Z,8.23
2023-01-12T05:39:47.462Z,7.53
2023-01-12T05:42:34.580Z,12.10
2023-01-12T05:45:03.079Z,13.38
2023-01-12T05:47:31.426Z,13.85
2023-01-12T05:49:59.778Z,11.85
2023-01-12T05:52:28.194Z,13.32
2023-01-12T05:54:56.550Z,4.60
2023-01-12T05:57:26.387Z,9.55
2023-01-12T05:59:54.793Z,9.10
2023-01-12T06:02:23.286Z,9.40
2023-01-12T06:04:51.850Z,8.38
2023-01-12T06:07:20.845Z,13.07
2023-01-12T06:09:49.382Z,9.50
2023-01-12T06:12:35.663Z,4.35
2023-01-12T06:15:06.344Z,8.70
2023-01-12T06:17:34.829Z,11.13
2023-01-12T06:20:03.789Z,15.00
2023-01-12T06:22:32.509Z,13.02
2023-01-12T06:25:00.938Z,8.98
2023-01-12T06:27:35.348Z,7.00
2023-01-12T06:30:06.498Z,6.88
2023-01-12T06:32:35.123Z,10.80
2023-01-12T06:35:14.126Z,11.13
2023-01-12T06:37:47.112Z,8.85
2023-01-12T06:40:15.627Z,8.45
2023-01-12T06:42:44.341Z,10.68
2023-01-12T06:45:14.068Z,7.30
2023-01-12T06:47:47.064Z,8.68
2023-01-12T06:50:16.569Z,7.90
2023-01-12T06:52:46.838Z,15.63
2023-01-12T06:55:15.304Z,14.20
2023-01-12T06:57:43.748Z,13.80
2023-01-12T07:00:14.978Z,12.35
2023-01-12T07:02:43.533Z,11.32
2023-01-12T07:05:16.968Z,11.18
2023-01-12T07:07:53.260Z,6.70
2023-01-12T07:10:48.693Z,5.53
2023-01-12T07:13:26.646Z,10.55
2023-01-12T07:16:04.616Z,8.55
2023-01-12T07:21:25.686Z,19.67
2023-01-12T07:23:55.015Z,17.17
2023-01-12T07:26:23.418Z,8.98
2023-01-12T07:28:51.916Z,7.25
2023-01-12T07:31:21.665Z,6.90
2023-01-12T07:33:52.273Z,13.63
2023-01-12T07:36:21.635Z,10.93
2023-01-12T07:38:50.044Z,8.63
2023-01-12T07:41:36.153Z,8.50
2023-01-12T07:44:04.728Z,15.90
2023-01-12T07:46:35.046Z,13.10
2023-01-12T07:49:03.573Z,10.32
2023-01-12T07:51:31.902Z,12.68
2023-01-12T07:54:00.406Z,15.45
2023-01-12T07:56:29.014Z,12.55
2023-01-12T07:58:57.592Z,13.85
2023-01-12T08:01:26.441Z,6.20
2023-01-12T08:03:56.841Z,15.00
2023-01-12T08:06:28.486Z,18.60
2023-01-12T08:08:56.868Z,16.05
2023-01-12T08:11:25.391Z,7.95
2023-01-12T08:13:56.063Z,11.60
2023-01-12T08:16:28.352Z,7.20
2023-01-12T08:19:37.091Z,9.50
2023-01-12T08:22:10.962Z,15.93
2023-01-12T08:24:43.923Z,15.18
2023-01-12T08:27:12.864Z,16.00
2023-01-12T08:29:45.687Z,17.25
2023-01-12T08:32:17.876Z,9.60
2023-01-12T08:34:49.856Z,13.07
2023-01-12T08:37:23.057Z,16.08
2023-01-12T08:39:52.201Z,12.30
2023-01-12T08:42:21.096Z,9.85
2023-01-12T08:44:49.624Z,15.88
2023-01-12T08:47:19.827Z,6.72
2023-01-12T08:49:48.657Z,4.85
2023-01-12T08:52:17.465Z,6.18
2023-01-12T08:54:47.741Z,12.13
2023-01-12T08:57:16.958Z,14.05
2023-01-12T08:59:45.323Z,11.18
2023-01-12T09:02:14.527Z,12.23
2023-01-12T09:04:43.545Z,10.35
2023-01-12T09:07:12.946Z,8.35
2023-01-12T09:09:41.413Z,10.10
2023-01-12T09:12:11.173Z,8.43
2023-01-12T09:14:39.579Z,6.93
2023-01-12T09:17:08.508Z,12.77
2023-01-12T09:19:37.053Z,9.15
2023-01-12T09:22:05.411Z,12.55
2023-01-12T09:24:33.757Z,5.85
2023-01-12T09:27:02.311Z,12.30
2023-01-12T09:29:31.966Z,9.40
2023-01-12T09:32:00.613Z,7.35
2023-01-12T09:34:29.503Z,6.72
2023-01-12T09:36:59.521Z,8.55
2023-01-12T09:39:28.812Z,8.35
2023-01-12T09:42:16.903Z,11.43
2023-01-12T09:45:08.092Z,4.57
2023-01-12T09:47:53.801Z,10.57
2023-01-12T09:50:26.384Z,12.98
2023-01-12T09:53:02.051Z,7.55
2023-01-12T09:55:37.425Z,6.38
2023-01-12T09:58:22.134Z,4.68
2023-01-12T10:00:54.642Z,4.07
2023-01-12T10:03:29.120Z,5.38
2023-01-12T10:06:00.465Z,7.22
2023-01-12T10:08:33.668Z,6.95
2023-01-12T10:11:17.640Z,10.15
2023-01-12T10:14:12.438Z,8.70
2023-01-12T10:16:53.072Z,5.60
2023-01-12T10:19:28.090Z,6.75
2023-01-12T10:21:57.421Z,7.32
2023-01-12T10:24:26.575Z,5.32
2023-01-12T10:27:02.012Z,10.52
2023-01-12T10:29:32.837Z,8.43
2023-01-12T10:32:02.569Z,6.20
2023-01-12T10:34:50.220Z,8.68
2023-01-12T10:37:18.977Z,4.57
2023-01-12T10:39:47.423Z,6.28
2023-01-12T10:42:37.969Z,4.70
2023-01-12T10:45:18.689Z,9.98
2023-01-12T10:47:50.614Z,4.70
2023-01-12T10:50:28.315Z,5.93
2023-01-12T10:53:01.427Z,8.93
2023-01-12T10:55:44.132Z,9.73
2023-01-12T10:58:22.680Z,8.70
2023-01-12T11:00:53.973Z,9.27
2023-01-12T11:03:37.575Z,9.80
2023-01-12T11:06:22.453Z,11.07
2023-01-12T11:08:51.087Z,6.38
2023-01-12T11:11:32.056Z,9.68
2023-01-12T11:14:02.399Z,8.70
2023-01-12T11:16:34.062Z,7.32
2023-01-12T11:19:21.314Z,6.68
2023-01-12T11:21:55.435Z,8.60
2023-01-12T11:24:34.970Z,14.90
2023-01-12T11:27:12.477Z,9.65
2023-01-12T11:29:49.587Z,6.97
2023-01-12T11:32:23.276Z,5.15
2023-01-12T11:35:00.225Z,10.63
2023-01-12T11:37:30.577Z,7.90
2023-01-12T11:40:08.652Z,9.35
2023-01-12T11:42:55.281Z,10.10
2023-01-12T11:45:29.689Z,9.48
2023-01-12T11:48:03.451Z,6.38
2023-01-12T11:50:38.607Z,5.18
2023-01-12T11:53:15.288Z,9.45
2023-01-12T11:55:57.092Z,8.38
2023-01-12T11:58:32.222Z,6.88
2023-01-12T12:01:06.391Z,8.52
2023-01-12T12:03:51.788Z,9.90
2023-01-12T12:06:43.617Z,7.88
2023-01-12T12:09:26.314Z,12.82
2023-01-12T12:12:00.227Z,11.20
2023-01-12T12:14:46.906Z,8.40
2023-01-12T12:17:20.575Z,7.22
2023-01-12T12:20:01.964Z,11.27
2023-01-12T12:22:46.264Z,10.88
2023-01-12T12:25:26.069Z,10.05
2023-01-12T12:28:10.867Z,9.52
2023-01-12T12:31:07.543Z,7.75
2023-01-12T12:33:55.546Z,5.78
2023-01-12T12:36:33.630Z,6.75
2023-01-12T12:39:35.994Z,9.20
2023-01-12T12:42:38.563Z,6.80
2023-01-12T12:45:21.319Z,13.93
2023-01-12T12:47:59.083Z,8.05
2023-01-12T12:50:32.004Z,13.77
2023-01-12T12:53:14.328Z,12.85
2023-01-12T12:55:44.894Z,7.10
2023-01-12T12:58:41.984Z,7.28
2023-01-12T13:01:55.565Z,10.30
2023-01-12T13:05:02.531Z,6.75
2023-01-12T13:07:35.673Z,7.72
2023-01-12T13:10:27.734Z,8.52
2023-01-12T13:13:24.342Z,8.63
2023-01-12T13:16:43.548Z,6.38
2023-01-12T13:19:35.065Z,10.43
2023-01-12T13:22:28.401Z,10.35
2023-01-12T13:25:03.279Z,20.75
2023-01-12T13:27:55.617Z,11.55
2023-01-12T13:30:49.816Z,10.18
2023-01-12T13:33:27.690Z,9.27
2023-01-12T13:36:12.521Z,8.07
2023-01-12T13:39:04.834Z,6.10
2023-01-12T13:41:53.506Z,4.70
2023-01-12T13:44:26.980Z,9.55
2023-01-12T13:47:03.386Z,4.10
2023-01-12T13:49:33.536Z,7.55
2023-01-12T13:52:08.740Z,6.38
2023-01-12T13:54:49.897Z,4.43
2023-01-12T13:57:21.320Z,7.88
2023-01-12T14:00:00.595Z,7.28
2023-01-12T14:02:32.531Z,7.50
2023-01-12T14:05:21.321Z,8.90
2023-01-12T14:08:01.416Z,4.68
2023-01-12T14:10:38.744Z,5.68
2023-01-12T14:13:40.678Z,8.23
2023-01-12T14:16:31.058Z,3.65
2023-01-12T14:18:59.698Z,3.45
2023-01-12T14:21:32.709Z,5.75
2023-01-12T14:24:16.209Z,8.27
2023-01-12T14:26:44.790Z,4.65
2023-01-12T14:29:13.816Z,3.95
2023-01-12T14:31:45.444Z,7.50
2023-01-12T14:34:24.521Z,5.18
2023-01-12T14:36:53.120Z,6.00
2023-01-12T14:39:26.785Z,5.88
2023-01-12T14:42:14.563Z,4.80
2023-01-12T14:45:08.077Z,5.32
2023-01-12T14:47:37.602Z,7.50
2023-01-12T14:50:16.458Z,5.55
2023-01-12T14:52:46.662Z,4.97
2023-01-12T14:55:19.038Z,5.60
2023-01-12T14:57:54.881Z,5.90
2023-01-12T15:00:26.854Z,9.88
2023-01-12T15:02:57.740Z,4.82
2023-01-12T15:05:28.030Z,8.73
2023-01-12T15:07:59.301Z,5.78
2023-01-12T15:10:35.079Z,5.47
2023-01-12T15:13:26.223Z,5.47
2023-01-12T15:16:13.811Z,6.38
2023-01-12T15:19:00.390Z,4.30
2023-01-12T15:21:47.220Z,7.38
2023-01-12T15:24:41.299Z,9.77
2023-01-12T15:27:12.487Z,3.30
2023-01-12T15:29:40.912Z,4.93
2023-01-12T15:32:15.127Z,6.60
2023-01-12T15:34:43.672Z,6.13
2023-01-12T15:37:15.817Z,7.05
2023-01-12T15:39:44.844Z,9.52
2023-01-12T15:42:17.853Z,5.05
2023-01-12T15:44:47.506Z,4.35
2023-01-12T15:47:21.007Z,3.42
2023-01-12T15:49:53.219Z,5.85
2023-01-12T15:52:24.619Z,3.97
2023-01-12T15:54:53.797Z,8.20
2023-01-12T15:57:23.556Z,7.28
2023-01-12T15:59:51.995Z,3.42
2023-01-12T16:02:27.422Z,8.45
2023-01-12T16:04:55.957Z,3.25
2023-01-12T16:07:24.744Z,2.70
2023-01-12T16:09:54.421Z,3.65
2023-01-12T16:12:24.658Z,6.68
2023-01-12T16:14:53.061Z,3.85
2023-01-12T16:17:22.120Z,6.32
2023-01-12T16:19:50.655Z,2.88
2023-01-12T16:22:21.004Z,2.88
2023-01-12T16:24:52.186Z,8.32
2023-01-12T16:27:22.957Z,4.45
2023-01-12T16:29:52.919Z,5.13
2023-01-12T16:32:24.217Z,6.68
2023-01-12T16:34:53.269Z,7.00
2023-01-12T16:37:23.115Z,8.18
2023-01-12T16:39:51.633Z,7.57
2023-01-12T16:42:20.239Z,6.90
2023-01-12T16:44:50.492Z,5.15
2023-01-12T16:47:21.470Z,6.97
2023-01-12T16:49:51.171Z,6.13
2023-01-12T16:52:21.711Z,6.90
2023-01-12T16:54:50.191Z,5.35
2023-01-12T16:57:19.497Z,4.15
2023-01-12T16:59:49.568Z,6.95
2023-01-12T17:02:21.976Z,9.30
2023-01-12T17:04:52.138Z,5.78
2023-01-12T17:07:21.203Z,5.65
2023-01-12T17:09:49.682Z,3.25
2023-01-12T17:12:18.536Z,4.30
2023-01-12T17:14:47.427Z,7.72
2023-01-12T17:17:16.225Z,5.93
2023-01-12T17:19:46.350Z,12.57
2023-01-12T17:22:15.007Z,3.05
2023-01-12T17:24:43.632Z,6.45
2023-01-12T17:27:12.404Z,3.67
2023-01-12T17:29:40.958Z,11.73
2023-01-12T17:32:09.920Z,5.22
2023-01-12T17:34:39.656Z,5.25
2023-01-12T17:37:10.413Z,5.70
2023-01-12T17:39:40.647Z,3.45
2023-01-12T17:42:28.654Z,6.40
2023-01-12T17:44:57.180Z,5.72
2023-01-12T17:47:25.691Z,4.20
2023-01-12T17:49:54.733Z,4.18
2023-01-12T17:52:24.577Z,3.40
2023-01-12T17:54:53.201Z,8.35
2023-01-12T17:57:21.832Z,7.00
2023-01-12T17:59:50.899Z,5.05
2023-01-12T18:02:19.468Z,6.20
2023-01-12T18:04:47.903Z,8.40
2023-01-12T18:07:16.436Z,3.88
2023-01-12T18:09:46.381Z,5.55
2023-01-12T18:12:16.360Z,5.00
2023-01-12T18:14:44.771Z,7.72
2023-01-12T18:17:13.259Z,6.78
2023-01-12T18:19:42.531Z,3.78
2023-01-12T18:22:11.419Z,4.35
2023-01-12T18:24:39.833Z,5.13
2023-01-12T18:27:10.006Z,5.47
2023-01-12T18:29:38.757Z,3.08
2023-01-12T18:32:07.533Z,3.08
2023-01-12T18:34:37.445Z,3.95
2023-01-12T18:37:05.986Z,8.88
2023-01-12T18:39:34.371Z,6.53
2023-01-12T18:42:20.390Z,10.80
2023-01-12T18:44:51.068Z,5.88
2023-01-12T18:47:37.718Z,5.93
2023-01-12T18:50:26.993Z,6.40
2023-01-12T18:55:41.904Z,8.02
2023-01-12T18:58:10.378Z,12.20
2023-01-12T19:00:41.342Z,10.13
2023-01-12T19:03:09.930Z,5.63
2023-01-12T19:05:46.139Z,4.97
2023-01-12T19:08:35.040Z,5.43
2023-01-12T19:11:11.321Z,5.05
2023-01-12T19:13:57.928Z,4.63
2023-01-12T19:16:45.771Z,10.10
2023-01-12T19:19:14.343Z,8.10
2023-01-12T19:22:00.610Z,5.53
2023-01-12T19:24:47.123Z,6.70
2023-01-12T19:27:33.403Z,4.75
2023-01-12T19:30:09.809Z,5.70
2023-01-12T19:32:39.625Z,5.63
2023-01-12T19:35:11.297Z,8.63
2023-01-12T19:37:42.410Z,5.18
2023-01-12T19:40:18.474Z,3.63
2023-01-12T19:43:04.633Z,6.72
2023-01-12T19:45:33.236Z,7.80
2023-01-12T19:48:03.614Z,8.25
2023-01-12T19:50:32.213Z,5.95
2023-01-12T19:53:00.725Z,4.57
2023-01-12T19:55:29.066Z,3.60
2023-01-12T19:57:58.182Z,7.32
2023-01-12T20:00:28.072Z,4.10
2023-01-12T20:02:56.953Z,4.93
2023-01-12T20:05:26.819Z,7.78
2023-01-12T20:07:55.679Z,7.57
2023-01-12T20:10:24.691Z,3.78
2023-01-12T20:12:53.071Z,11.02
2023-01-12T20:15:21.753Z,7.32
2023-01-12T20:17:51.016Z,9.27
2023-01-12T20:20:20.168Z,3.58
2023-01-12T20:22:51.416Z,6.68
2023-01-12T20:25:20.493Z,6.45
2023-01-12T20:27:52.301Z,7.32
2023-01-12T20:30:37.029Z,5.97
2023-01-12T20:33:06.828Z,6.28
2023-01-12T20:35:38.215Z,6.35
2023-01-12T20:38:13.228Z,3.35
2023-01-12T20:40:42.217Z,5.80
2023-01-12T20:43:10.652Z,4.45
2023-01-12T20:45:41.394Z,4.57
2023-01-12T20:48:13.194Z,3.17
2023-01-12T20:50:46.153Z,6.90
2023-01-12T20:53:16.806Z,5.30
2023-01-12T20:55:47.280Z,4.43
2023-01-12T20:58:16.121Z,6.72
2023-01-12T21:00:45.731Z,4.07
2023-01-12T21:03:14.388Z,6.80
2023-01-12T21:05:43.652Z,4.13
2023-01-12T21:08:12.730Z,5.28
2023-01-12T21:10:49.221Z,4.80
2023-01-12T21:13:17.899Z,3.72
2023-01-12T21:15:46.767Z,4.40
2023-01-12T21:18:15.284Z,3.65
2023-01-12T21:20:44.084Z,8.68
2023-01-12T21:23:12.501Z,5.07
2023-01-12T21:25:43.251Z,3.85
2023-01-12T21:28:12.025Z,3.45
2023-01-12T21:33:47.135Z,3.33
2023-01-12T21:36:21.162Z,5.38
2023-01-12T21:38:50.921Z,5.68
2023-01-12T21:41:38.473Z,5.38
2023-01-12T21:44:15.230Z,5.47
2023-01-12T21:46:47.309Z,5.97
2023-01-12T21:49:24.745Z,6.45
2023-01-12T21:51:53.158Z,5.50
2023-01-12T21:54:21.512Z,4.28
2023-01-12T21:56:51.242Z,5.65
2023-01-12T21:59:22.372Z,6.80
2023-01-12T22:01:50.977Z,6.50
2023-01-12T22:04:19.464Z,4.93
2023-01-12T22:06:50.772Z,7.20
2023-01-12T22:09:20.722Z,4.90
2023-01-12T22:11:49.069Z,5.63
2023-01-12T22:14:18.898Z,6.20
2023-01-12T22:16:47.289Z,6.50
2023-01-12T22:19:15.693Z,6.75
2023-01-12T22:21:44.236Z,6.40
2023-01-12T22:24:12.615Z,7.38
2023-01-12T22:26:50.073Z,6.28
2023-01-12T22:29:19.875Z,4.90
2023-01-12T22:31:48.255Z,6.82
2023-01-12T22:34:16.631Z,8.10
2023-01-12T22:36:44.981Z,5.10
2023-01-12T22:39:14.181Z,7.88
2023-01-12T22:41:42.536Z,7.88
2023-01-12T22:44:10.951Z,8.35
2023-01-12T22:46:40.952Z,6.93
2023-01-12T22:49:09.410Z,9.35
2023-01-12T22:51:37.939Z,7.35
2023-01-12T22:54:06.382Z,4.80
2023-01-12T22:56:34.731Z,6.10
2023-01-12T22:59:03.154Z,7.75
2023-01-12T23:01:31.791Z,5.03
2023-01-12T23:04:02.084Z,7.70
2023-01-12T23:06:30.667Z,8.35
2023-01-12T23:08:59.293Z,3.22
2023-01-12T23:11:28.230Z,4.47
2023-01-12T23:13:56.783Z,5.93
2023-01-12T23:16:26.303Z,7.65
2023-01-12T23:18:55.530Z,4.15
2023-01-12T23:21:27.390Z,7.07
2023-01-12T23:23:57.930Z,8.80
2023-01-12T23:26:28.013Z,7.75
2023-01-12T23:28:57.715Z,6.50
2023-01-12T23:31:27.782Z,4.63
2023-01-12T23:33:57.695Z,7.65
2023-01-12T23:36:29.669Z,5.25
2023-01-12T23:39:00.445Z,4.93
2023-01-12T23:41:30.798Z,3.95
2023-01-12T23:44:01.087Z,6.38
2023-01-12T23:46:33.830Z,4.32
2023-01-12T23:49:02.709Z,4.95
2023-01-12T23:51:33.215Z,4.78
2023-01-12T23:54:03.089Z,4.47
2023-01-12T23:56:34.767Z,6.20
2023-01-12T23:59:03.609Z,4.13
